APL Coral — WDF6832 — position and weather

sailwx.info

Track history (hours):
 
Tides and Currents Weather Stations Pressure Air Temp Water Temp Dewpoint Dewpoint Depression Visibility Wind Speed Wind Dir Waves Ship Positions

APL Coral

More information available from US FCC via Universal Licensing System and Coast Guard Vessel Documentation Center.

Last reported at 2014-Jul-30 13:18 UTC. Time now 2014-Jul-31 15:40 UTC.
Position N 32°04' W 080°58'.

Length 275 m; draft 11.9 m.

Type: Cargo ship. MMSI: 367478280.

Date/timePositionNaut miles runAvg speedWind from/ knotsBaromVisibWave heightAir tempDewpointWater temp
2014-Jul-30 13:18N 32°04' W 080°58'6 7.4
2014-Jul-30 12:31N 32°05' W 081°05'4 4.4
2014-Jul-30 11:33N 32°08' W 081°08'0 0.2
2014-Jul-30 10:31N 32°08' W 081°08'0 0.0
2014-Jul-30 09:28N 32°08' W 081°08'0 0.0
2014-Jul-30 08:32N 32°08' W 081°08'0 0.0
2014-Jul-30 07:31N 32°08' W 081°08'0 0.0
2014-Jul-30 06:32N 32°08' W 081°08'0 0.0
2014-Jul-30 05:32N 32°08' W 081°08'0 0.0
2014-Jul-30 04:32N 32°08' W 081°08'0 0.0
2014-Jul-30 03:26N 32°08' W 081°08'0 0.0
2014-Jul-30 02:28N 32°08' W 081°08'0 0.0
2014-Jul-30 01:25N 32°08' W 081°08'0 0.0
2014-Jul-30 00:13N 32°08' W 081°08'0 0.0
2014-Jul-29 23:32N 32°08' W 081°08'0 0.0
2014-Jul-29 22:25N 32°08' W 081°08'0 0.0
2014-Jul-29 21:17N 32°08' W 081°08'0 0.0
2014-Jul-29 20:26N 32°08' W 081°08'0 0.0
2014-Jul-29 19:32N 32°08' W 081°08'0 0.0
2014-Jul-29 18:29N 32°08' W 081°08'0 0.0
2014-Jul-29 17:32N 32°08' W 081°08'0 0.0
2014-Jul-29 16:25N 32°08' W 081°08'0 0.0
2014-Jul-29 15:32N 32°08' W 081°08'1 0.7
2014-Jul-29 14:33N 32°07' W 081°08'5 5.2
2014-Jul-29 13:33N 32°05' W 081°03'29012.6
2014-Jul-28 14:33N 34°20' W 075°55'2317.4
2014-Jul-28 13:14N 34°35' W 075°34'1116.9
2014-Jul-28 12:34N 34°42' W 075°24'1515.3
2014-Jul-28 11:33N 34°53' W 075°10'9515.8
2014-Jul-28 05:33N 36°23' W 074°37'2317.6
2014-Jul-28 04:14N 36°46' W 074°31'3117.6
2014-Jul-28 02:27N 37°17' W 074°23'1617.5
2014-Jul-28 01:33N 37°32' W 074°18'2617.4
2014-Jul-28 00:04N 37°58' W 074°12'1117.5
2014-Jul-27 23:25N 38°09' W 074°08'1817.8
2014-Jul-27 22:25N 38°26' W 074°03'1719.3
2014-Jul-27 21:33N 38°42' W 073°59'2019.8
2014-Jul-27 20:33N 39°02' W 073°55'2019.7
2014-Jul-27 19:33N 39°21' W 073°54'1919.4
2014-Jul-27 18:33N 39°41' W 073°52'1919.0
2014-Jul-27 17:34N 39°60' W 073°51'1818.2
2014-Jul-27 16:33N 40°18' W 073°49'1212.6
2014-Jul-27 15:33N 40°30' W 073°56'1211.9
2014-Jul-27 14:33N 40°39' W 074°05'3 2.7
2014-Jul-27 13:33N 40°40' W 074°08'0 0.1
2014-Jul-27 12:32N 40°40' W 074°08'0 0.0
2014-Jul-27 11:32N 40°40' W 074°08'0 0.0
2014-Jul-27 10:32N 40°40' W 074°08'0 0.0
2014-Jul-27 09:08N 40°40' W 074°08'0 0.0
2014-Jul-27 08:32N 40°40' W 074°08'0 0.0
2014-Jul-27 07:32N 40°40' W 074°08'0 0.0
2014-Jul-27 06:32N 40°40' W 074°08'0 0.0
2014-Jul-27 05:32N 40°40' W 074°08'0 0.0
2014-Jul-27 04:32N 40°40' W 074°08'0 0.0
2014-Jul-27 03:32N 40°40' W 074°08'0 0.0
2014-Jul-27 02:26N 40°40' W 074°08'0 0.0
2014-Jul-27 01:29N 40°40' W 074°08'0 0.0
2014-Jul-27 00:23N 40°40' W 074°08'0 0.0
2014-Jul-26 23:32N 40°40' W 074°08'0 0.0
2014-Jul-26 22:32N 40°40' W 074°08'0 0.0
2014-Jul-26 21:29N 40°40' W 074°08'0 0.0
2014-Jul-26 20:32N 40°40' W 074°08'0 0.0
2014-Jul-26 19:32N 40°40' W 074°08'0 0.0
2014-Jul-26 18:32N 40°40' W 074°08'0 0.0
2014-Jul-26 17:32N 40°40' W 074°08'0 0.0
2014-Jul-26 16:32N 40°40' W 074°08'0 0.0
2014-Jul-26 15:32N 40°40' W 074°08'0 0.0
2014-Jul-26 14:32N 40°40' W 074°08'0 0.0
2014-Jul-26 13:32N 40°40' W 074°08'0 0.0
2014-Jul-26 12:32N 40°40' W 074°08'2 1.8
2014-Jul-26 11:34N 40°39' W 074°07'8 7.7
2014-Jul-26 10:34N 40°32' W 074°01'1313.0
2014-Jul-26 09:33N 40°27' W 073°46'1211.6
2014-Jul-26 08:33N 40°28' W 073°31'2019.9
2014-Jul-26 07:33N 40°30' W 073°05'2020.2
2014-Jul-26 06:33N 40°31' W 072°38'2019.9
2014-Jul-26 05:33N 40°31' W 072°12'2019.9
2014-Jul-26 04:33N 40°31' W 071°46'2019.9
2014-Jul-26 03:33N 40°32' W 071°20'1919.4
2014-Jul-26 02:33N 40°32' W 070°54'2019.5
2014-Jul-26 01:33N 40°33' W 070°29'2019.9
2014-Jul-26 00:33N 40°34' W 070°03'2020.2
2014-Jul-25 23:33N 40°36' W 069°36'2120.5
2014-Jul-25 22:33N 40°36' W 069°09'2120.5
2014-Jul-25 21:32N 40°43' W 068°43'2120.7
2014-Jul-25 20:31N 40°49' W 068°16'2420.7
2014-Jul-25 19:22N 40°56' W 067°46'322 8.0
2014-Jul-24 03:13N 43°59' W 061°48'  
Track history (hours):
 
Tides and Currents Weather Stations Pressure Air Temp Water Temp Dewpoint Dewpoint Depression Visibility Wind Speed Wind Dir Waves Ship Positions

APL Coral

More information available from US FCC via Universal Licensing System and Coast Guard Vessel Documentation Center.

Last reported at 2014-Jul-30 13:18 UTC. Time now 2014-Jul-31 15:40 UTC.
Position N 32°04' W 080°58'.

Length 275 m; draft 11.9 m.

Type: Cargo ship. MMSI: 367478280.

Date/timePositionNaut miles runAvg speedWind from/ knotsBaromVisibWave heightAir tempDewpointWater temp
2014-Jul-30 13:18N 32°04' W 080°58'6 7.4
2014-Jul-30 12:31N 32°05' W 081°05'4 4.4
2014-Jul-30 11:33N 32°08' W 081°08'0 0.2
2014-Jul-30 10:31N 32°08' W 081°08'0 0.0
2014-Jul-30 09:28N 32°08' W 081°08'0 0.0
2014-Jul-30 08:32N 32°08' W 081°08'0 0.0
2014-Jul-30 07:31N 32°08' W 081°08'0 0.0
2014-Jul-30 06:32N 32°08' W 081°08'0 0.0
2014-Jul-30 05:32N 32°08' W 081°08'0 0.0
2014-Jul-30 04:32N 32°08' W 081°08'0 0.0
2014-Jul-30 03:26N 32°08' W 081°08'0 0.0
2014-Jul-30 02:28N 32°08' W 081°08'0 0.0
2014-Jul-30 01:25N 32°08' W 081°08'0 0.0
2014-Jul-30 00:13N 32°08' W 081°08'0 0.0
2014-Jul-29 23:32N 32°08' W 081°08'0 0.0
2014-Jul-29 22:25N 32°08' W 081°08'0 0.0
2014-Jul-29 21:17N 32°08' W 081°08'0 0.0
2014-Jul-29 20:26N 32°08' W 081°08'0 0.0
2014-Jul-29 19:32N 32°08' W 081°08'0 0.0
2014-Jul-29 18:29N 32°08' W 081°08'0 0.0
2014-Jul-29 17:32N 32°08' W 081°08'0 0.0
2014-Jul-29 16:25N 32°08' W 081°08'0 0.0
2014-Jul-29 15:32N 32°08' W 081°08'1 0.7
2014-Jul-29 14:33N 32°07' W 081°08'5 5.2
2014-Jul-29 13:33N 32°05' W 081°03'29012.6
2014-Jul-28 14:33N 34°20' W 075°55'2317.4
2014-Jul-28 13:14N 34°35' W 075°34'1116.9
2014-Jul-28 12:34N 34°42' W 075°24'1515.3
2014-Jul-28 11:33N 34°53' W 075°10'9515.8
2014-Jul-28 05:33N 36°23' W 074°37'2317.6
2014-Jul-28 04:14N 36°46' W 074°31'3117.6
2014-Jul-28 02:27N 37°17' W 074°23'1617.5
2014-Jul-28 01:33N 37°32' W 074°18'2617.4
2014-Jul-28 00:04N 37°58' W 074°12'1117.5
2014-Jul-27 23:25N 38°09' W 074°08'1817.8
2014-Jul-27 22:25N 38°26' W 074°03'1719.3
2014-Jul-27 21:33N 38°42' W 073°59'2019.8
2014-Jul-27 20:33N 39°02' W 073°55'2019.7
2014-Jul-27 19:33N 39°21' W 073°54'1919.4
2014-Jul-27 18:33N 39°41' W 073°52'1919.0
2014-Jul-27 17:34N 39°60' W 073°51'1818.2
2014-Jul-27 16:33N 40°18' W 073°49'1212.6
2014-Jul-27 15:33N 40°30' W 073°56'1211.9
2014-Jul-27 14:33N 40°39' W 074°05'3 2.7
2014-Jul-27 13:33N 40°40' W 074°08'0 0.1
2014-Jul-27 12:32N 40°40' W 074°08'0 0.0
2014-Jul-27 11:32N 40°40' W 074°08'0 0.0
2014-Jul-27 10:32N 40°40' W 074°08'0 0.0
2014-Jul-27 09:08N 40°40' W 074°08'0 0.0
2014-Jul-27 08:32N 40°40' W 074°08'0 0.0
2014-Jul-27 07:32N 40°40' W 074°08'0 0.0
2014-Jul-27 06:32N 40°40' W 074°08'0 0.0
2014-Jul-27 05:32N 40°40' W 074°08'0 0.0
2014-Jul-27 04:32N 40°40' W 074°08'0 0.0
2014-Jul-27 03:32N 40°40' W 074°08'0 0.0
2014-Jul-27 02:26N 40°40' W 074°08'0 0.0
2014-Jul-27 01:29N 40°40' W 074°08'0 0.0
2014-Jul-27 00:23N 40°40' W 074°08'0 0.0
2014-Jul-26 23:32N 40°40' W 074°08'0 0.0
2014-Jul-26 22:32N 40°40' W 074°08'0 0.0
2014-Jul-26 21:29N 40°40' W 074°08'0 0.0
2014-Jul-26 20:32N 40°40' W 074°08'0 0.0
2014-Jul-26 19:32N 40°40' W 074°08'0 0.0
2014-Jul-26 18:32N 40°40' W 074°08'0 0.0
2014-Jul-26 17:32N 40°40' W 074°08'0 0.0
2014-Jul-26 16:32N 40°40' W 074°08'0 0.0
2014-Jul-26 15:32N 40°40' W 074°08'0 0.0
2014-Jul-26 14:32N 40°40' W 074°08'0 0.0
2014-Jul-26 13:32N 40°40' W 074°08'0 0.0
2014-Jul-26 12:32N 40°40' W 074°08'2 1.8
2014-Jul-26 11:34N 40°39' W 074°07'8 7.7
2014-Jul-26 10:34N 40°32' W 074°01'1313.0
2014-Jul-26 09:33N 40°27' W 073°46'1211.6
2014-Jul-26 08:33N 40°28' W 073°31'2019.9
2014-Jul-26 07:33N 40°30' W 073°05'2020.2
2014-Jul-26 06:33N 40°31' W 072°38'2019.9
2014-Jul-26 05:33N 40°31' W 072°12'2019.9
2014-Jul-26 04:33N 40°31' W 071°46'2019.9
2014-Jul-26 03:33N 40°32' W 071°20'1919.4
2014-Jul-26 02:33N 40°32' W 070°54'2019.5
2014-Jul-26 01:33N 40°33' W 070°29'2019.9
2014-Jul-26 00:33N 40°34' W 070°03'2020.2
2014-Jul-25 23:33N 40°36' W 069°36'2120.5
2014-Jul-25 22:33N 40°36' W 069°09'2120.5
2014-Jul-25 21:32N 40°43' W 068°43'2120.7
2014-Jul-25 20:31N 40°49' W 068°16'2420.7
2014-Jul-25 19:22N 40°56' W 067°46'322 8.0
2014-Jul-24 03:13N 43°59' W 061°48'  

Dump ship's entire track history